Time;durP1;ratioP1;P1;durP2;ratioP2;P2;SDS_P1;SDS_P2;PMS_P1;PMS_P2;Temp;Humidity;BMP_temperature;BMP_pressure;BME280_temperature;BME280_humidity;BME280_pressure;Samples;Min_cycle;Max_cycle;Signal;HPM_P1;HPM_P2
2022/01/31 00:01:54;;;;;;;19.95;5.70;;;;;;;2.70;94.09;99384.56;5033883;28;20037;-87
2022/01/31 00:04:20;;;;;;;19.77;5.10;;;;;;;2.56;94.40;99368.50;5033975;28;20030;-87
2022/01/31 00:06:48;;;;;;;16.83;5.13;;;;;;;2.45;94.39;99366.16;5034051;28;20033;-87
2022/01/31 00:09:16;;;;;;;20.65;5.47;;;;;;;2.37;94.77;99373.16;5033824;28;20081;-86
2022/01/31 00:11:46;;;;;;;20.15;5.63;;;;;;;2.22;95.07;99360.56;5033720;28;20060;-88
2022/01/31 00:14:29;;;;;;;22.87;6.70;;;;;;;2.23;95.21;99372.53;5033844;28;20113;-87
2022/01/31 00:16:55;;;;;;;17.45;5.15;;;;;;;2.17;95.89;99370.94;5033581;28;20102;-87
2022/01/31 00:19:20;;;;;;;16.88;5.05;;;;;;;2.12;95.92;99369.31;5033231;28;20419;-88
2022/01/31 00:21:46;;;;;;;21.10;6.35;;;;;;;2.12;96.36;99349.63;5033334;28;20033;-87
2022/01/31 00:24:11;;;;;;;17.98;6.20;;;;;;;2.12;96.32;99354.75;5033408;28;20025;-87
2022/01/31 00:26:36;;;;;;;18.95;4.35;;;;;;;2.12;96.28;99361.63;5033354;28;20025;-86
2022/01/31 00:29:02;;;;;;;17.40;5.53;;;;;;;2.07;96.72;99369.41;5033385;28;20033;-87
2022/01/31 00:31:27;;;;;;;16.33;4.65;;;;;;;2.04;96.38;99359.16;5033108;28;20116;-87
2022/01/31 00:33:53;;;;;;;16.15;5.30;;;;;;;1.93;96.47;99343.06;5033292;28;20025;-90
2022/01/31 00:36:18;;;;;;;17.30;4.68;;;;;;;1.95;96.71;99344.75;5032960;28;20110;-87
2022/01/31 00:38:44;;;;;;;23.23;5.50;;;;;;;1.91;96.67;99329.44;5033062;28;20062;-87
2022/01/31 00:41:10;;;;;;;19.20;5.63;;;;;;;1.89;97.04;99318.31;5033193;28;20555;-87
2022/01/31 00:43:37;;;;;;;18.98;5.22;;;;;;;1.77;96.70;99300.53;5032846;28;20049;-86
2022/01/31 00:46:10;;;;;;;21.23;5.68;;;;;;;1.77;96.67;99305.69;5033190;28;20033;-87
2022/01/31 00:48:41;;;;;;;18.08;5.60;;;;;;;1.77;96.42;99319.38;5032623;28;20087;-86
2022/01/31 00:51:07;;;;;;;14.23;5.50;;;;;;;1.76;96.46;99317.66;5033031;28;20022;-87
2022/01/31 00:53:32;;;;;;;21.98;5.28;;;;;;;1.75;96.88;99308.28;5032912;28;20025;-87
2022/01/31 00:55:58;;;;;;;18.20;5.18;;;;;;;1.70;97.05;99294.69;5032995;28;20407;-87
2022/01/31 00:58:23;;;;;;;22.52;6.22;;;;;;;1.72;96.83;99298.91;5032904;28;20026;-87
2022/01/31 01:00:49;;;;;;;16.10;5.05;;;;;;;1.75;96.64;99309.13;5032781;28;20564;-86
2022/01/31 01:03:14;;;;;;;15.25;3.92;;;;;;;1.74;96.62;99299.75;5032202;28;20119;-86
2022/01/31 01:05:40;;;;;;;25.80;6.88;;;;;;;1.64;96.83;99290.47;5032359;28;20641;-87
2022/01/31 01:08:07;;;;;;;22.27;5.25;;;;;;;1.66;96.62;99280.19;5032596;28;20065;-87
2022/01/31 01:10:33;;;;;;;20.85;5.40;;;;;;;1.62;96.81;99273.41;5032426;28;20037;-88
2022/01/31 01:12:58;;;;;;;18.02;5.15;;;;;;;1.67;96.80;99279.31;5032491;28;20485;-88
2022/01/31 01:15:24;;;;;;;21.08;5.00;;;;;;;1.67;96.88;99277.59;5032309;28;20025;-86
2022/01/31 01:17:49;;;;;;;23.77;5.57;;;;;;;1.71;96.73;99248.44;5032325;28;20029;-87
2022/01/31 01:20:16;;;;;;;18.95;5.78;;;;;;;1.79;96.40;99262.88;5032263;28;20033;-87
2022/01/31 01:22:43;;;;;;;17.40;5.30;;;;;;;1.77;96.52;99250.06;5032269;28;20039;-87
2022/01/31 01:25:09;;;;;;;24.90;6.35;;;;;;;1.79;96.58;99242.31;5032193;28;20025;-87
2022/01/31 01:27:35;;;;;;;20.05;6.03;;;;;;;1.93;95.91;99248.91;5032068;28;20055;-87
2022/01/31 01:30:00;;;;;;;28.45;5.63;;;;;;;1.98;95.48;99254.81;5032194;28;20137;-87
2022/01/31 01:32:29;;;;;;;19.85;4.68;;;;;;;1.97;94.98;99236.84;5031799;28;20059;-89
2022/01/31 01:34:59;;;;;;;23.80;5.25;;;;;;;2.06;95.04;99243.53;5032273;28;20171;-89
2022/01/31 01:37:24;;;;;;;22.27;4.90;;;;;;;2.06;94.98;99248.66;5031970;28;20033;-89
2022/01/31 01:39:50;;;;;;;22.88;5.88;;;;;;;1.98;94.83;99231.69;5032174;28;20052;-88
2022/01/31 01:42:15;;;;;;;19.67;5.40;;;;;;;2.07;94.70;99230.69;5032171;28;20032;-89
2022/01/31 01:44:50;;;;;;;22.65;5.32;;;;;;;2.05;94.67;99218.72;5031532;28;20068;-88
2022/01/31 01:47:25;;;;;;;20.95;5.47;;;;;;;2.06;94.46;99225.56;5031857;28;20029;-89
2022/01/31 01:49:52;;;;;;;21.90;5.25;;;;;;;2.04;94.28;99214.47;5010748;28;20037;-89
2022/01/31 01:52:18;;;;;;;25.05;4.93;;;;;;;1.93;94.11;99210.38;5010858;28;20088;-88
2022/01/31 01:54:48;;;;;;;10.25;4.38;;;;;;;1.97;94.33;99231.72;5010399;28;20057;-89
2022/01/31 01:57:14;;;;;;;15.30;5.18;;;;;;;1.92;94.35;99221.53;4994364;28;20088;-89
2022/01/31 01:59:40;;;;;;;17.52;5.07;;;;;;;1.90;94.34;99225.84;5010254;28;20749;-89
2022/01/31 02:02:06;;;;;;;17.75;4.88;;;;;;;1.81;94.64;99210.59;4994390;28;20041;-89
2022/01/31 02:04:32;;;;;;;19.23;5.68;;;;;;;1.87;94.73;99212.22;5010144;28;20041;-88
2022/01/31 02:06:58;;;;;;;18.55;5.03;;;;;;;1.88;95.17;99217.31;5010361;28;20092;-89
2022/01/31 02:09:26;;;;;;;16.98;4.75;;;;;;;1.87;95.42;99207.94;4993725;28;20513;-89
2022/01/31 02:11:54;;;;;;;19.17;6.40;;;;;;;1.82;96.21;99203.75;4994107;28;20092;-89
2022/01/31 02:14:23;;;;;;;26.23;6.20;;;;;;;1.84;96.40;99207.13;4993414;28;20057;-89
2022/01/31 02:16:51;;;;;;;14.63;5.15;;;;;;;1.69;96.43;99183.44;5010385;28;20033;-89
2022/01/31 02:19:18;;;;;;;15.88;5.63;;;;;;;1.87;97.00;99200.22;4994118;28;20026;-89
2022/01/31 02:21:45;;;;;;;15.57;5.15;;;;;;;1.89;97.09;99200.19;5010665;28;20485;-88
2022/01/31 02:24:12;;;;;;;21.00;5.50;;;;;;;1.88;97.54;99193.38;5013357;28;20092;-89
2022/01/31 02:26:38;;;;;;;20.33;5.57;;;;;;;1.90;97.82;99199.34;5013056;28;20481;-89
2022/01/31 02:29:05;;;;;;;19.95;6.07;;;;;;;1.91;98.01;99193.31;5013330;28;20116;-88
2022/01/31 02:31:31;;;;;;;20.42;6.07;;;;;;;1.96;98.37;99196.63;5013174;28;20067;-88
2022/01/31 02:33:56;;;;;;;17.75;4.75;;;;;;;2.00;98.59;99181.13;5013341;28;20030;-89
2022/01/31 02:36:21;;;;;;;15.05;4.65;;;;;;;2.05;98.34;99182.78;5013015;28;20099;-89
2022/01/31 02:38:47;;;;;;;18.98;5.45;;;;;;;2.08;98.41;99177.59;5027740;28;20037;-90
2022/01/31 02:41:12;;;;;;;15.35;4.72;;;;;;;2.13;98.55;99171.47;5031228;28;20034;-89
2022/01/31 02:43:38;;;;;;;20.90;5.38;;;;;;;2.10;98.72;99158.66;5030904;28;20033;-88
2022/01/31 02:46:03;;;;;;;15.32;4.90;;;;;;;2.11;98.31;99168.09;5031164;28;20026;-89
2022/01/31 02:48:32;;;;;;;21.63;5.03;;;;;;;2.07;98.48;99145.06;5030980;28;20033;-90
2022/01/31 02:50:57;;;;;;;12.52;4.88;;;;;;;2.10;98.48;99145.00;5031451;28;20488;-89
2022/01/31 02:53:32;;;;;;;17.08;4.80;;;;;;;2.14;98.73;99141.47;5030776;28;20087;-89
2022/01/31 02:56:01;;;;;;;17.70;4.53;;;;;;;2.18;98.80;99143.94;5031267;28;20029;-87
2022/01/31 02:58:28;;;;;;;18.35;5.03;;;;;;;2.14;98.45;99134.63;5030984;28;20026;-88
2022/01/31 03:00:55;;;;;;;12.27;4.10;;;;;;;2.19;98.41;99145.66;5031356;28;20053;-88
2022/01/31 03:03:21;;;;;;;18.35;4.60;;;;;;;2.11;98.40;99127.00;5030785;28;20083;-88
2022/01/31 03:05:46;;;;;;;15.40;4.97;;;;;;;2.14;98.58;99136.34;5030748;28;20030;-88
2022/01/31 03:08:12;;;;;;;16.23;4.18;;;;;;;2.17;98.61;99128.59;5030656;28;20095;-88
2022/01/31 03:10:38;;;;;;;16.60;4.35;;;;;;;2.11;98.78;99121.84;5031008;28;20103;-89
2022/01/31 03:13:03;;;;;;;15.45;4.80;;;;;;;2.11;98.75;99119.28;5031437;28;20065;-89
2022/01/31 03:15:29;;;;;;;18.75;4.35;;;;;;;2.11;98.66;99108.16;5030987;28;20025;-89
2022/01/31 03:17:54;;;;;;;16.48;4.65;;;;;;;2.08;98.67;99113.38;5031374;28;20501;-89
2022/01/31 03:20:22;;;;;;;17.58;4.78;;;;;;;2.03;98.90;99100.63;5031352;28;20397;-88
2022/01/31 03:22:48;;;;;;;19.90;5.30;;;;;;;2.09;99.16;99105.63;5030983;28;20028;-89
2022/01/31 03:25:14;;;;;;;18.58;5.00;;;;;;;2.12;98.93;99105.56;5031963;28;20022;-89
2022/01/31 03:27:40;;;;;;;17.88;4.20;;;;;;;2.12;99.08;99090.16;5034870;28;20074;-89
2022/01/31 03:30:08;;;;;;;17.38;4.60;;;;;;;1.99;99.21;99066.44;5034901;28;20037;-88
2022/01/31 03:32:34;;;;;;;19.05;5.10;;;;;;;2.18;99.24;99089.16;5034757;28;20108;-89
2022/01/31 03:35:01;;;;;;;19.38;5.20;;;;;;;2.09;98.89;99072.22;5035037;28;20034;-88
2022/01/31 03:37:27;;;;;;;15.70;4.40;;;;;;;2.19;99.44;99083.13;5034634;28;20120;-89
2022/01/31 03:39:53;;;;;;;14.73;5.03;;;;;;;2.19;99.29;99081.44;5034799;28;20049;-89
2022/01/31 03:42:18;;;;;;;14.75;4.57;;;;;;;2.19;99.37;99072.84;5034893;28;20617;-88
2022/01/31 03:44:48;;;;;;;15.25;4.28;;;;;;;2.19;99.42;99063.44;5034602;28;20539;-89
2022/01/31 03:47:15;;;;;;;18.17;4.40;;;;;;;2.18;99.29;99058.31;5034854;28;20036;-89
2022/01/31 03:49:41;;;;;;;20.83;5.35;;;;;;;2.19;99.28;99062.56;5034679;28;20381;-89
2022/01/31 03:52:06;;;;;;;17.25;4.50;;;;;;;2.16;99.77;99047.25;5034317;28;20120;-89
2022/01/31 03:54:32;;;;;;;15.65;4.72;;;;;;;2.23;99.39;99057.38;5034456;28;20032;-90
2022/01/31 03:56:57;;;;;;;18.23;5.85;;;;;;;2.26;99.52;99046.16;5034812;28;20551;-89
2022/01/31 03:59:23;;;;;;;14.07;4.60;;;;;;;2.29;99.64;99040.97;5034312;28;20122;-89
2022/01/31 04:01:48;;;;;;;18.90;5.25;;;;;;;2.28;99.56;99025.59;5034358;28;20079;-89
2022/01/31 04:04:14;;;;;;;23.25;6.53;;;;;;;2.29;99.68;99030.69;5034231;28;20052;-89
2022/01/31 04:06:40;;;;;;;27.73;7.05;;;;;;;2.22;99.46;99014.53;5034299;28;20148;-89
2022/01/31 04:09:06;;;;;;;22.83;6.00;;;;;;;2.30;99.86;99022.09;5033941;28;20060;-88
2022/01/31 04:11:32;;;;;;;18.80;4.18;;;;;;;2.28;99.39;99008.44;5033966;28;20033;-89
2022/01/31 04:13:57;;;;;;;14.63;4.30;;;;;;;2.29;100.00;99001.56;5034464;28;20465;-90
2022/01/31 04:16:23;;;;;;;20.13;5.45;;;;;;;2.29;99.80;99004.13;5033736;28;20387;-89
2022/01/31 04:18:48;;;;;;;16.85;4.88;;;;;;;2.25;99.75;98990.53;5033608;28;20034;-88
2022/01/31 04:21:14;;;;;;;17.48;5.35;;;;;;;2.30;99.98;98993.81;5033509;28;20063;-89
2022/01/31 04:23:40;;;;;;;22.42;5.38;;;;;;;2.32;99.60;98996.34;5033716;28;20033;-89
2022/01/31 04:26:12;;;;;;;20.02;6.38;;;;;;;2.36;99.77;98993.69;5033927;28;20036;-88
2022/01/31 04:28:44;;;;;;;18.67;5.18;;;;;;;2.32;99.83;98986.94;5033490;28;20366;-89
2022/01/31 04:33:49;;;;;;;17.00;4.63;;;;;;;2.27;99.82;98980.19;5034728;28;20042;-88
2022/01/31 04:36:15;;;;;;;14.65;4.95;;;;;;;2.34;100.00;98986.88;5033626;28;20040;-89
2022/01/31 04:38:46;;;;;;;17.13;4.90;;;;;;;2.19;99.95;98957.25;5032628;28;20120;-88
2022/01/31 04:41:12;;;;;;;12.85;4.60;;;;;;;2.33;100.00;98982.63;5012443;28;20034;-89
2022/01/31 04:43:37;;;;;;;15.98;4.60;;;;;;;2.34;100.00;98982.59;4995696;28;20045;-88
2022/01/31 04:46:05;;;;;;;12.10;3.90;;;;;;;2.31;100.00;98964.66;4996025;28;20034;-89
2022/01/31 04:48:31;;;;;;;15.40;4.95;;;;;;;2.35;100.00;98966.28;5012345;28;20091;-89
2022/01/31 04:50:57;;;;;;;15.55;4.72;;;;;;;2.40;100.00;98966.16;4996020;28;20374;-89
2022/01/31 04:53:22;;;;;;;19.45;4.18;;;;;;;2.37;100.00;98956.81;4995943;28;20124;-89
2022/01/31 04:55:48;;;;;;;17.90;4.85;;;;;;;2.36;100.00;98951.69;5012180;28;20034;-89
2022/01/31 04:58:14;;;;;;;16.88;4.78;;;;;;;2.41;100.00;98960.16;4995775;28;20307;-88
2022/01/31 05:00:40;;;;;;;18.70;3.92;;;;;;;2.37;100.00;98956.81;4995553;28;20049;-88
2022/01/31 05:03:12;;;;;;;15.75;4.13;;;;;;;2.40;100.00;98950.75;4995694;28;20397;-87
2022/01/31 05:05:38;;;;;;;16.80;4.97;;;;;;;2.35;100.00;98945.72;5011103;28;20084;-82
2022/01/31 05:08:03;;;;;;;19.90;4.90;;;;;;;2.32;100.00;98937.25;4994890;28;20050;-81
2022/01/31 05:10:29;;;;;;;18.25;5.50;;;;;;;2.32;100.00;98934.66;5011294;28;20022;-81
2022/01/31 05:12:54;;;;;;;22.08;4.97;;;;;;;2.36;100.00;98938.84;5024004;28;20053;-81
2022/01/31 05:15:20;;;;;;;19.00;5.15;;;;;;;2.37;100.00;98938.84;5033433;28;20408;-81
2022/01/31 05:17:45;;;;;;;19.52;5.20;;;;;;;2.27;100.00;98921.09;5032025;28;20033;-81
2022/01/31 05:20:11;;;;;;;25.42;5.97;;;;;;;2.34;100.00;98927.78;5032261;28;20057;-81
2022/01/31 05:22:36;;;;;;;21.27;5.47;;;;;;;2.32;100.00;98929.53;5033216;28;20091;-81
2022/01/31 05:25:02;;;;;;;17.88;4.97;;;;;;;2.35;100.00;98930.31;5033683;28;20445;-81
2022/01/31 05:27:27;;;;;;;21.95;5.40;;;;;;;2.22;100.00;98904.06;5033223;28;20033;-80
2022/01/31 05:29:53;;;;;;;21.02;6.22;;;;;;;2.27;100.00;98901.38;5033228;28;20029;-80
2022/01/31 05:32:18;;;;;;;25.67;5.68;;;;;;;2.32;100.00;98904.69;5032143;28;20418;-81
2022/01/31 05:34:43;;;;;;;22.25;6.38;;;;;;;2.30;100.00;98900.47;5031796;28;20120;-80
2022/01/31 05:37:09;;;;;;;19.23;4.72;;;;;;;2.30;100.00;98898.75;5032957;28;20381;-80
2022/01/31 05:39:34;;;;;;;17.83;4.90;;;;;;;2.33;100.00;98890.13;5032857;28;20101;-80
2022/01/31 05:42:00;;;;;;;19.20;4.63;;;;;;;2.10;100.00;98845.28;5031784;28;20029;-80
2022/01/31 05:44:26;;;;;;;24.23;5.13;;;;;;;2.27;100.00;98872.28;5032659;28;20029;-80
2022/01/31 05:46:52;;;;;;;18.70;5.70;;;;;;;2.16;100.00;98855.41;5031807;28;20461;-80
2022/01/31 05:49:18;;;;;;;23.77;6.88;;;;;;;2.27;100.00;98872.28;5030762;28;20028;-81
2022/01/31 05:52:02;;;;;;;29.25;7.10;;;;;;;2.13;100.00;98840.06;5032692;28;20477;-80
2022/01/31 05:54:28;;;;;;;19.42;4.82;;;;;;;2.20;100.00;98844.19;5032566;28;20026;-80
2022/01/31 05:56:58;;;;;;;20.60;6.68;;;;;;;2.08;100.00;98826.50;5031477;28;20043;-80
2022/01/31 05:59:24;;;;;;;18.45;6.00;;;;;;;2.21;100.00;98843.28;5032742;28;20026;-80
2022/01/31 06:01:49;;;;;;;28.80;6.45;;;;;;;2.18;100.00;98832.25;5032845;28;20087;-80
2022/01/31 06:04:15;;;;;;;20.25;5.65;;;;;;;2.17;100.00;98828.00;5033045;28;20465;-80
2022/01/31 06:06:40;;;;;;;19.17;5.47;;;;;;;2.16;100.00;98832.31;5032513;28;20112;-80
2022/01/31 06:09:06;;;;;;;23.52;5.95;;;;;;;2.17;100.00;98823.69;5031164;28;20046;-80
2022/01/31 06:11:34;;;;;;;21.17;6.15;;;;;;;2.11;100.00;98805.91;5032241;28;20025;-80
2022/01/31 06:14:09;;;;;;;21.90;5.45;;;;;;;2.10;100.00;98805.91;5032706;28;20033;-80
2022/01/31 06:16:35;;;;;;;24.73;7.40;;;;;;;2.24;100.00;98821.84;5032386;28;20105;-80
2022/01/31 06:19:01;;;;;;;23.50;5.95;;;;;;;2.23;100.00;98821.00;5031188;28;20462;-80
2022/01/31 06:21:27;;;;;;;23.90;5.60;;;;;;;2.13;100.00;98796.41;5032163;28;20036;-80
2022/01/31 06:23:52;;;;;;;24.75;6.47;;;;;;;2.29;100.00;98824.28;5032309;28;20035;-80
2022/01/31 06:26:20;;;;;;;27.95;5.80;;;;;;;2.28;100.00;98809.75;5032232;28;20377;-80
2022/01/31 06:28:45;;;;;;;19.60;6.07;;;;;;;2.16;100.00;98782.66;5032388;28;20381;-80
2022/01/31 06:31:11;;;;;;;21.70;5.68;;;;;;;2.23;100.00;98792.72;5032188;28;20021;-80
2022/01/31 06:33:36;;;;;;;27.55;6.32;;;;;;;2.25;100.00;98792.69;5030783;28;20029;-80
2022/01/31 06:36:02;;;;;;;20.02;6.63;;;;;;;2.23;100.00;98785.03;5032067;28;20041;-80
2022/01/31 06:38:28;;;;;;;25.45;7.70;;;;;;;2.28;100.00;98789.19;5031922;28;20435;-80
2022/01/31 06:40:54;;;;;;;23.38;7.07;;;;;;;2.11;100.00;98745.97;5032017;28;20022;-80
2022/01/31 06:43:20;;;;;;;18.42;6.25;;;;;;;2.21;100.00;98761.09;5032083;28;20388;-80
2022/01/31 06:45:45;;;;;;;24.00;8.68;;;;;;;2.30;100.00;98779.72;5031890;28;20037;-80
2022/01/31 06:48:11;;;;;;;26.80;6.57;;;;;;;2.30;100.00;98769.44;5032058;28;20432;-80
2022/01/31 06:50:36;;;;;;;33.35;6.85;;;;;;;2.28;100.00;98772.06;5030479;28;20481;-80
2022/01/31 06:53:02;;;;;;;23.65;6.07;;;;;;;2.25;100.00;98757.56;5032300;28;20029;-80
2022/01/31 06:55:29;;;;;;;23.30;6.20;;;;;;;2.33;100.00;98759.91;5030333;28;20041;-80
2022/01/31 06:57:55;;;;;;;30.13;7.25;;;;;;;2.32;100.00;98753.09;5030722;28;20041;-80
2022/01/31 07:00:22;;;;;;;22.67;6.10;;;;;;;2.32;100.00;98745.38;5031801;28;20029;-80
2022/01/31 07:02:49;;;;;;;24.73;5.53;;;;;;;2.26;100.00;98732.69;5034446;28;20030;-80
2022/01/31 07:05:15;;;;;;;25.50;6.82;;;;;;;2.27;100.00;98729.22;5035959;28;20087;-80
2022/01/31 07:07:41;;;;;;;27.52;6.75;;;;;;;2.37;100.00;98738.38;5034208;28;20420;-80
2022/01/31 07:10:08;;;;;;;27.20;8.52;;;;;;;2.33;100.00;98731.66;5035767;28;20017;-80
2022/01/31 07:12:37;;;;;;;31.05;9.70;;;;;;;2.43;100.00;98739.94;5017876;28;20029;-80
2022/01/31 07:15:05;;;;;;;27.48;9.20;;;;;;;2.40;100.00;98743.44;5035965;28;20048;-79
2022/01/31 07:17:30;;;;;;;22.63;7.68;;;;;;;2.36;100.00;98740.97;5017811;28;20389;-80
2022/01/31 07:19:57;;;;;;;23.95;7.68;;;;;;;2.45;100.00;98751.88;5035839;28;20036;-80
2022/01/31 07:22:30;;;;;;;20.05;8.05;;;;;;;2.49;100.00;98744.91;5035892;28;20042;-87
2022/01/31 07:25:07;;;;;;;23.83;7.53;;;;;;;2.50;100.00;98750.00;5017974;28;20032;-87
2022/01/31 07:27:33;;;;;;;18.08;7.28;;;;;;;2.52;100.00;98738.84;5017702;28;20030;-87
2022/01/31 07:29:59;;;;;;;21.48;8.68;;;;;;;2.58;100.00;98730.97;5017841;28;20021;-86
2022/01/31 07:32:25;;;;;;;20.95;7.65;;;;;;;2.61;100.00;98729.16;5034147;28;20072;-87
2022/01/31 07:34:53;;;;;;;24.25;7.28;;;;;;;2.68;100.00;98734.94;5015207;28;20038;-87
2022/01/31 07:37:23;;;;;;;23.05;6.10;;;;;;;2.71;100.00;98734.84;4998132;28;20393;-87
2022/01/31 07:39:49;;;;;;;27.90;6.50;;;;;;;2.68;100.00;98725.47;4997637;28;20119;-88
2022/01/31 07:42:17;;;;;;;21.08;6.15;;;;;;;2.63;100.00;98709.38;4997889;28;20030;-87
2022/01/31 07:44:43;;;;;;;21.45;6.97;;;;;;;2.73;100.00;98721.03;4997589;28;20025;-87
2022/01/31 07:47:09;;;;;;;24.45;6.60;;;;;;;2.72;100.00;98716.78;4997837;28;20037;-86
2022/01/31 07:49:35;;;;;;;25.42;7.07;;;;;;;2.70;100.00;98703.16;4997239;28;20088;-86
2022/01/31 07:52:00;;;;;;;23.58;6.70;;;;;;;2.72;100.00;98698.78;5015607;28;20098;-86
2022/01/31 07:54:27;;;;;;;27.95;6.70;;;;;;;2.74;100.00;98684.19;4997818;28;20025;-86
2022/01/31 07:56:52;;;;;;;22.38;5.93;;;;;;;2.80;100.00;98683.16;4997551;28;20385;-86
2022/01/31 07:59:18;;;;;;;22.42;6.45;;;;;;;2.84;100.00;98681.31;4997561;28;20120;-86
2022/01/31 08:01:44;;;;;;;21.05;6.78;;;;;;;2.83;100.00;98683.06;4997335;28;20030;-86
2022/01/31 08:04:10;;;;;;;23.10;9.05;;;;;;;2.80;100.00;98660.00;4997409;28;20026;-86
2022/01/31 08:06:45;;;;;;;23.15;7.57;;;;;;;2.91;99.94;98669.97;4997434;28;20022;-86
2022/01/31 08:09:11;;;;;;;23.20;7.25;;;;;;;2.94;99.54;98667.28;4972566;28;20141;-86
2022/01/31 08:11:37;;;;;;;24.73;7.43;;;;;;;2.96;99.73;98676.63;5031215;28;20037;-86
2022/01/31 08:14:09;;;;;;;34.38;11.20;;;;;;;2.95;99.43;98667.25;5015834;28;20045;-87
2022/01/31 08:16:36;;;;;;;29.63;11.18;;;;;;;2.94;99.26;98654.41;5015574;28;20056;-86
2022/01/31 08:19:06;;;;;;;27.63;9.23;;;;;;;2.99;99.02;98653.41;5018221;28;20107;-86
2022/01/31 08:21:51;;;;;;;24.30;9.25;;;;;;;3.08;98.81;98656.56;5021293;28;20022;-86
2022/01/31 08:24:19;;;;;;;24.38;7.90;;;;;;;3.07;98.65;98654.88;5019790;28;20477;-87
2022/01/31 08:26:44;;;;;;;27.65;7.35;;;;;;;3.10;98.31;98652.19;5021817;28;20029;-87
2022/01/31 08:29:28;;;;;;;20.33;8.02;;;;;;;3.11;98.62;98657.28;5003889;28;20046;-87
2022/01/31 08:31:54;;;;;;;22.40;8.13;;;;;;;3.09;98.40;98635.94;4990176;28;20049;-87
2022/01/31 08:35:48;;;;;;;17.25;9.15;;;;;;;2.99;98.28;98619.97;4975907;28;20038;-86
2022/01/31 08:37:09;;;;;;;28.33;11.13;;;;;;;3.10;98.06;98631.63;4992242;28;20117;-86
2022/01/31 08:39:35;;;;;;;24.00;8.15;;;;;;;3.16;98.09;98632.28;4992199;28;20288;-85
2022/01/31 08:42:00;;;;;;;29.05;7.10;;;;;;;2.93;97.56;98594.44;4976115;28;20137;-85
2022/01/31 08:44:26;;;;;;;20.73;7.85;;;;;;;3.18;97.68;98627.06;4975955;28;20041;-86
2022/01/31 08:46:51;;;;;;;20.98;6.75;;;;;;;3.18;97.85;98617.63;4991859;28;20468;-86
2022/01/31 08:49:17;;;;;;;25.80;7.20;;;;;;;3.17;97.71;98615.09;4992136;28;20030;-86
2022/01/31 08:51:44;;;;;;;23.67;7.15;;;;;;;3.18;97.59;98606.47;4991832;28;20034;-86
2022/01/31 08:54:10;;;;;;;29.17;11.10;;;;;;;3.19;97.69;98606.41;4975863;28;20153;-86
2022/01/31 08:56:44;;;;;;;29.48;9.73;;;;;;;3.23;97.48;98602.03;4975536;28;20038;-86
2022/01/31 08:59:13;;;;;;;26.60;9.60;;;;;;;3.17;97.16;98582.50;4975794;28;20069;-86
2022/01/31 09:01:39;;;;;;;34.67;12.52;;;;;;;3.24;97.29;98594.28;4991752;28;20045;-86
2022/01/31 09:04:07;;;;;;;22.77;10.35;;;;;;;3.26;97.30;98586.47;5033113;28;20378;-86
2022/01/31 09:06:34;;;;;;;26.58;12.23;;;;;;;3.33;97.49;98602.53;5032403;28;20400;-87
2022/01/31 09:09:05;;;;;;;32.10;14.18;;;;;;;3.26;97.26;98578.75;5032368;28;20042;-87
2022/01/31 09:11:31;;;;;;;35.45;13.05;;;;;;;3.39;96.86;98589.47;5032524;28;20022;-85
2022/01/31 09:13:56;;;;;;;25.20;9.65;;;;;;;3.44;96.95;98585.00;5032235;28;20065;-86
2022/01/31 09:16:22;;;;;;;23.00;8.65;;;;;;;3.48;96.58;98587.41;5032346;28;20063;-87
2022/01/31 09:18:48;;;;;;;22.08;7.82;;;;;;;3.46;96.31;98562.63;5031971;28;20032;-86
2022/01/31 09:21:13;;;;;;;22.90;7.95;;;;;;;3.56;96.58;98576.84;5032083;28;20473;-86
2022/01/31 09:23:39;;;;;;;22.88;10.02;;;;;;;3.59;96.22;98576.75;5031848;28;20112;-86
2022/01/31 09:26:05;;;;;;;28.75;10.32;;;;;;;3.64;95.67;98577.44;5032102;28;20029;-87
2022/01/31 09:28:30;;;;;;;25.70;8.52;;;;;;;3.67;95.58;98579.91;5032099;28;20043;-86
2022/01/31 09:30:56;;;;;;;28.35;10.02;;;;;;;3.60;95.61;98554.41;5015266;28;20088;-87
2022/01/31 09:33:22;;;;;;;20.30;8.55;;;;;;;3.66;95.63;98559.34;5032039;28;20496;-87
2022/01/31 09:35:47;;;;;;;22.98;9.07;;;;;;;3.60;95.08;98547.53;5031528;28;20032;-86
2022/01/31 09:38:16;;;;;;;32.65;11.30;;;;;;;3.71;94.87;98565.19;5032049;28;20037;-86
2022/01/31 09:40:42;;;;;;;24.92;10.77;;;;;;;3.64;95.00;98549.09;5010574;28;20132;-86
2022/01/31 09:48:40;;;;;;;22.17;7.85;;;;;;;3.77;94.98;98553.81;4971892;28;20474;-86
2022/01/31 09:51:18;;;;;;;29.33;8.98;;;;;;;3.78;95.06;98560.63;4971576;28;20101;-86
2022/01/31 09:53:55;;;;;;;24.60;8.95;;;;;;;3.75;94.38;98548.72;4955152;28;20109;-86
2022/01/31 09:56:24;;;;;;;27.45;8.18;;;;;;;3.58;94.05;98523.59;4971542;28;20126;-86
2022/01/31 09:58:51;;;;;;;25.55;7.47;;;;;;;3.75;94.13;98544.41;4955144;28;20095;-86
2022/01/31 10:01:27;;;;;;;31.58;9.07;;;;;;;3.77;94.09;98544.34;4955261;28;20077;-86
2022/01/31 10:03:58;;;;;;;26.83;8.48;;;;;;;3.77;94.06;98536.63;4954971;28;20042;-86
2022/01/31 10:06:26;;;;;;;30.40;8.48;;;;;;;3.79;94.01;98539.13;4955195;28;20086;-86
2022/01/31 10:09:04;;;;;;;26.80;9.63;;;;;;;3.78;93.62;98527.16;4954821;28;20057;-87
2022/01/31 10:11:39;;;;;;;39.67;13.15;;;;;;;3.59;93.66;98489.22;4963050;28;20046;-86
2022/01/31 10:16:58;;;;;;;27.67;9.15;;;;;;;3.89;93.24;98514.72;4990661;28;20568;-87
2022/01/31 10:19:24;;;;;;;22.70;7.97;;;;;;;3.88;93.46;98507.91;4974267;28;20042;-86
2022/01/31 10:22:02;;;;;;;23.98;9.55;;;;;;;3.92;93.08;98510.31;4974035;28;20031;-87
2022/01/31 10:24:31;;;;;;;29.02;8.40;;;;;;;3.92;93.31;98499.16;5031060;28;20388;-86
2022/01/31 10:26:57;;;;;;;31.10;12.13;;;;;;;3.88;93.23;98488.13;5030809;28;20057;-86
2022/01/31 10:29:24;;;;;;;32.45;10.70;;;;;;;3.86;93.08;98473.63;5030932;28;20473;-86
2022/01/31 10:32:09;;;;;;;26.88;7.72;;;;;;;3.92;92.44;98483.72;5030658;28;20022;-85
2022/01/31 10:34:56;;;;;;;27.05;8.18;;;;;;;3.95;92.35;98481.00;5030484;28;20447;-87
2022/01/31 10:37:24;;;;;;;28.48;9.27;;;;;;;4.03;92.20;98483.28;5030862;28;20032;-86
2022/01/31 10:51:30;;;;;;;34.10;11.40;;;;;;;4.08;92.10;98458.16;5032020;28;20036;-87
2022/01/31 10:53:59;;;;;;;28.88;11.00;;;;;;;4.12;92.17;98457.97;5031786;28;20029;-87
2022/01/31 10:56:34;;;;;;;29.17;10.45;;;;;;;4.11;92.25;98448.56;5030786;28;20124;-86
2022/01/31 10:59:04;;;;;;;26.88;8.05;;;;;;;4.11;91.77;98422.81;5030377;28;20095;-86
2022/01/31 11:01:29;;;;;;;28.23;10.02;;;;;;;4.22;91.50;98443.84;5030760;28;20102;-85
2022/01/31 11:03:56;;;;;;;23.85;11.73;;;;;;;4.23;91.44;98434.38;5030340;28;20029;-86
2022/01/31 11:06:23;;;;;;;26.30;10.57;;;;;;;4.26;91.52;98426.53;5030659;28;20025;-86
2022/01/31 11:08:51;;;;;;;35.63;11.18;;;;;;;4.20;90.81;98406.97;5030306;28;20041;-86
2022/01/31 11:11:17;;;;;;;29.35;10.40;;;;;;;4.34;90.97;98429.63;5030384;28;20113;-86
2022/01/31 11:13:44;;;;;;;23.30;7.85;;;;;;;4.41;90.59;98422.47;5030198;28;20120;-86
2022/01/31 11:16:09;;;;;;;32.88;10.75;;;;;;;4.38;90.10;98417.44;5030505;28;20649;-86
2022/01/31 11:18:36;;;;;;;27.02;11.25;;;;;;;4.43;90.28;98416.34;5030496;28;20033;-87
2022/01/31 11:21:05;;;;;;;37.45;18.33;;;;;;;4.45;89.70;98401.66;5030148;28;20033;-87
2022/01/31 11:23:37;;;;;;;25.05;10.35;;;;;;;4.43;89.13;98403.47;5030283;28;20044;-87
2022/01/31 11:26:05;;;;;;;26.08;9.00;;;;;;;4.56;88.77;98413.28;5030027;28;20116;-87
2022/01/31 11:28:33;;;;;;;23.65;9.30;;;;;;;4.53;88.98;98397.91;5030371;28;20037;-87
2022/01/31 11:31:01;;;;;;;33.15;10.82;;;;;;;4.63;88.42;98406.94;5030265;28;20032;-87
2022/01/31 11:33:27;;;;;;;31.13;11.65;;;;;;;4.66;87.69;98415.38;5009297;28;20064;-87
2022/01/31 11:35:53;;;;;;;33.58;9.05;;;;;;;4.70;87.82;98411.78;4992657;28;20038;-88
2022/01/31 11:38:19;;;;;;;26.35;8.77;;;;;;;4.61;87.69;98396.69;4992947;28;20131;-87
2022/01/31 11:40:46;;;;;;;28.63;10.43;;;;;;;4.71;87.62;98397.97;4992621;28;20117;-87
2022/01/31 11:43:14;;;;;;;27.92;10.40;;;;;;;4.71;87.61;98392.81;4992943;28;20034;-87
2022/01/31 11:45:41;;;;;;;22.33;8.25;;;;;;;4.59;87.24;98372.69;4992858;28;20116;-87
2022/01/31 11:48:17;;;;;;;23.63;7.53;;;;;;;4.71;86.69;98397.13;4996292;28;20121;-88
2022/01/31 11:50:45;;;;;;;25.60;8.75;;;;;;;4.74;86.82;98400.41;4996870;28;20041;-87
2022/01/31 11:53:11;;;;;;;24.27;10.23;;;;;;;4.67;87.12;98390.44;4996555;28;20042;-87